»·PEaware :: MRR211 CYBD-CAM5

MRR211 :: CYBD-CAM5

FLIGHT INFORMATION

Flight Status: Arrived
Operator:
San Juan Airlines
More flights by this operator :: More flights under this callsign
Pilot: Robert L. (6895)
Aircraft: MCDONNELL-DOUGLAS DC-6/B LIFTMASTER
(DC6)
More flights by this aircraft type
Origin: CYBD Bella Coola
Canada
Destination: CAM5 Houston
Canada
More flights between these airports :: More routes between these airports
Route: Direct
File this flight plan on PilotEdge
Remarks: Call sign Mariner
Altitude:
(Current/Filed)
12,500ft
Speed:
(Current/Filed)
150kts
Departed: 14-Jan-17 07:01 PM
Arrived: 14-Jan-17 07:50 PM
Distance/Time
Traveled:
123nm/0:49
Distance/Time
To Go:
Arrived

Flight Plot

Page will automatically refresh every two minutes.

Flight plan parsing failed; only flown route is shown


Map Options




Map Legend


Flown Route
Filed Route
Departure Airport
Arrival Airport
Navaid (VOR, NDB)
Fix

Horizontal Profiles

Position Reports

Time Latitude Longitude Heading Altitude Ground
Speed
14-Jan-17 18:59 52.389368 -126.586837 251 126ft 0kts
14-Jan-17 19:00 52.389368 -126.586837 251 126ft 0kts
14-Jan-17 19:01 52.386773 -126.599552 250 174ft 117kts
14-Jan-17 19:02 52.370647 -126.668361 250 810ft 200kts
14-Jan-17 19:03 52.377680 -126.755832 302 1216ft 211kts
14-Jan-17 19:04 52.379271 -126.759822 302 1204ft 212kts
14-Jan-17 19:05 52.360595 -126.914447 238 767ft 176kts
14-Jan-17 19:06 52.329377 -126.969946 220 769ft 159kts
14-Jan-17 19:07 52.313063 -127.024894 265 760ft 122kts
14-Jan-17 19:08 52.310752 -127.074966 265 780ft 111kts
14-Jan-17 19:09 52.314223 -127.129564 291 778ft 132kts
14-Jan-17 19:10 52.338098 -127.179310 324 775ft 148kts
14-Jan-17 19:11 52.373768 -127.216951 333 774ft 157kts
14-Jan-17 19:12 52.418292 -127.237650 353 1025ft 199kts
14-Jan-17 19:13 52.472850 -127.248489 353 1013ft 190kts
14-Jan-17 19:14 52.524474 -127.252978 12 1012ft 184kts
14-Jan-17 19:15 52.563139 -127.208367 45 1099ft 164kts
14-Jan-17 19:16 52.594690 -127.153700 47 1610ft 166kts
14-Jan-17 19:17 52.622442 -127.093025 54 2116ft 166kts
14-Jan-17 19:18 52.646200 -127.005471 67 951ft 249kts
14-Jan-17 19:19 52.703577 -126.960916 8 2959ft 235kts
14-Jan-17 19:20 52.753417 -126.966281 353 4349ft 197kts
14-Jan-17 19:21 52.813270 -126.974876 353 6351ft 174kts
14-Jan-17 19:22 52.850575 -126.977319 353 7920ft 154kts
14-Jan-17 19:23 52.892096 -126.977200 353 9290ft 152kts
14-Jan-17 19:24 52.946664 -126.976685 353 10485ft 178kts
14-Jan-17 19:25 52.987086 -126.959581 15 11416ft 188kts
14-Jan-17 19:26 53.043369 -126.922791 15 11461ft 243kts
14-Jan-17 19:27 53.107991 -126.882948 355 11457ft 254kts
14-Jan-17 19:28 53.177374 -126.864400 358 11451ft 265kts
14-Jan-17 19:29 53.262844 -126.841390 358 11451ft 267kts
14-Jan-17 19:30 53.336316 -126.821653 358 11451ft 268kts
14-Jan-17 19:31 53.409777 -126.801885 358 11451ft 268kts
14-Jan-17 19:32 53.471160 -126.785323 358 11452ft 269kts
14-Jan-17 19:33 53.544763 -126.765411 358 11452ft 269kts
14-Jan-17 19:34 53.615855 -126.746120 358 11453ft 269kts
14-Jan-17 19:35 53.690898 -126.725693 358 11453ft 269kts
14-Jan-17 19:36 53.765566 -126.705304 358 11453ft 269kts
14-Jan-17 19:37 53.838541 -126.699115 352 11170ft 258kts
14-Jan-17 19:38 53.907406 -126.692649 352 10461ft 240kts
14-Jan-17 19:39 53.972159 -126.687069 352 9704ft 227kts
14-Jan-17 19:40 54.033852 -126.683220 352 8937ft 218kts
14-Jan-17 19:41 54.093260 -126.681490 352 8138ft 210kts
14-Jan-17 19:42 54.148243 -126.682114 352 7393ft 205kts
14-Jan-17 19:43 54.204269 -126.685144 352 6586ft 194kts
14-Jan-17 19:44 54.257602 -126.690410 352 5736ft 192kts
14-Jan-17 19:45 54.302264 -126.663018 16 5474ft 148kts
14-Jan-17 19:46 54.336941 -126.668737 340 5231ft 126kts
14-Jan-17 19:47 54.365200 -126.703448 310 4593ft 135kts
14-Jan-17 19:48 54.395028 -126.745497 331 3101ft 117kts
14-Jan-17 19:49 54.419069 -126.769448 332 2369ft 89kts
14-Jan-17 19:50 54.433190 -126.783189 328 2159ft 7kts
14-Jan-17 19:51 54.433181 -126.784191 167 2159ft 3kts
14-Jan-17 19:52 54.433156 -126.784168 144 2159ft 0kts
14-Jan-17 19:53 54.433156 -126.784168 144 2159ft 0kts
14-Jan-17 19:55 54.433156 -126.784168 144 2159ft 0kts
14-Jan-17 19:56 54.433156 -126.784168 144 2159ft 0kts
14-Jan-17 19:57 54.433156 -126.784168 144 2159ft 0kts
14-Jan-17 19:58 54.433156 -126.784168 144 2159ft 0kts
14-Jan-17 19:59 54.433156 -126.784168 144 2159ft 0kts
14-Jan-17 20:00 54.433156 -126.784168 144 2159ft 0kts
14-Jan-17 20:01 54.433156 -126.784168 144 2159ft 0kts
14-Jan-17 20:02 54.433156 -126.784168 144 2159ft 0kts
14-Jan-17 20:03 54.433156 -126.784168 144 2159ft 0kts
14-Jan-17 20:04 54.433156 -126.784168 144 2159ft 0kts

Navigation Log

Ident Type
Flight plan parsing failed, navigation log unavailable